sensor_id;sensor_type;location;lat;lon;timestamp;P1;durP1;ratioP1;P2;durP2;ratioP2
64199;SDS011;50516;52.272;5.136;2023-04-30T00:01:33;20.55;;;10.18;;
64199;SDS011;50516;52.272;5.136;2023-04-30T00:03:59;17.92;;;11.05;;
64199;SDS011;50516;52.272;5.136;2023-04-30T00:06:24;20.15;;;9.23;;
64199;SDS011;50516;52.272;5.136;2023-04-30T00:08:50;20.75;;;10.23;;
64199;SDS011;50516;52.272;5.136;2023-04-30T00:11:15;15.52;;;9.52;;
64199;SDS011;50516;52.272;5.136;2023-04-30T00:13:40;17.75;;;9.27;;
64199;SDS011;50516;52.272;5.136;2023-04-30T00:16:07;19.17;;;10.30;;
64199;SDS011;50516;52.272;5.136;2023-04-30T00:18:32;14.02;;;9.20;;
64199;SDS011;50516;52.272;5.136;2023-04-30T00:20:57;17.95;;;9.43;;
64199;SDS011;50516;52.272;5.136;2023-04-30T00:23:23;15.20;;;8.50;;
64199;SDS011;50516;52.272;5.136;2023-04-30T00:25:48;16.88;;;9.23;;
64199;SDS011;50516;52.272;5.136;2023-04-30T00:28:13;13.32;;;8.73;;
64199;SDS011;50516;52.272;5.136;2023-04-30T00:30:39;17.63;;;9.90;;
64199;SDS011;50516;52.272;5.136;2023-04-30T00:33:04;16.70;;;9.55;;
64199;SDS011;50516;52.272;5.136;2023-04-30T00:35:29;16.77;;;9.82;;
64199;SDS011;50516;52.272;5.136;2023-04-30T00:37:55;18.92;;;10.02;;
64199;SDS011;50516;52.272;5.136;2023-04-30T00:40:20;16.33;;;9.85;;
64199;SDS011;50516;52.272;5.136;2023-04-30T00:42:46;17.75;;;10.10;;
64199;SDS011;50516;52.272;5.136;2023-04-30T00:45:12;15.70;;;10.32;;
64199;SDS011;50516;52.272;5.136;2023-04-30T00:47:38;15.43;;;9.70;;
64199;SDS011;50516;52.272;5.136;2023-04-30T00:50:03;15.73;;;8.30;;
64199;SDS011;50516;52.272;5.136;2023-04-30T00:52:29;13.30;;;9.23;;
64199;SDS011;50516;52.272;5.136;2023-04-30T00:54:55;15.40;;;10.32;;
64199;SDS011;50516;52.272;5.136;2023-04-30T00:57:20;22.33;;;9.98;;
64199;SDS011;50516;52.272;5.136;2023-04-30T00:59:46;14.35;;;9.70;;
64199;SDS011;50516;52.272;5.136;2023-04-30T01:02:12;16.52;;;10.13;;
64199;SDS011;50516;52.272;5.136;2023-04-30T01:04:38;15.77;;;8.85;;
64199;SDS011;50516;52.272;5.136;2023-04-30T01:07:04;15.50;;;9.27;;
64199;SDS011;50516;52.272;5.136;2023-04-30T01:09:30;14.75;;;9.18;;
64199;SDS011;50516;52.272;5.136;2023-04-30T01:12:12;13.32;;;8.93;;
64199;SDS011;50516;52.272;5.136;2023-04-30T01:17:47;15.88;;;9.50;;
64199;SDS011;50516;52.272;5.136;2023-04-30T01:20:19;16.65;;;10.38;;
64199;SDS011;50516;52.272;5.136;2023-04-30T01:22:48;15.57;;;9.77;;
64199;SDS011;50516;52.272;5.136;2023-04-30T01:25:34;17.55;;;9.27;;
64199;SDS011;50516;52.272;5.136;2023-04-30T01:28:15;13.27;;;8.75;;
64199;SDS011;50516;52.272;5.136;2023-04-30T01:30:44;16.10;;;9.65;;
64199;SDS011;50516;52.272;5.136;2023-04-30T01:33:10;14.00;;;9.68;;
64199;SDS011;50516;52.272;5.136;2023-04-30T01:41:19;13.82;;;9.13;;
64199;SDS011;50516;52.272;5.136;2023-04-30T01:46:23;11.90;;;8.50;;
64199;SDS011;50516;52.272;5.136;2023-04-30T01:48:54;16.67;;;9.45;;
64199;SDS011;50516;52.272;5.136;2023-04-30T01:51:44;15.82;;;9.93;;
64199;SDS011;50516;52.272;5.136;2023-04-30T01:57:38;14.43;;;8.90;;
64199;SDS011;50516;52.272;5.136;2023-04-30T02:00:08;17.40;;;10.00;;
64199;SDS011;50516;52.272;5.136;2023-04-30T02:02:35;17.60;;;10.40;;
64199;SDS011;50516;52.272;5.136;2023-04-30T02:05:00;16.45;;;10.10;;
64199;SDS011;50516;52.272;5.136;2023-04-30T02:07:31;17.13;;;10.13;;
64199;SDS011;50516;52.272;5.136;2023-04-30T02:10:03;16.63;;;9.35;;
64199;SDS011;50516;52.272;5.136;2023-04-30T02:12:30;19.77;;;9.70;;
64199;SDS011;50516;52.272;5.136;2023-04-30T02:14:55;15.38;;;10.00;;
64199;SDS011;50516;52.272;5.136;2023-04-30T02:17:21;17.85;;;10.35;;
64199;SDS011;50516;52.272;5.136;2023-04-30T02:19:46;15.88;;;9.52;;
64199;SDS011;50516;52.272;5.136;2023-04-30T02:22:11;15.70;;;9.55;;
64199;SDS011;50516;52.272;5.136;2023-04-30T02:24:37;15.52;;;9.50;;
64199;SDS011;50516;52.272;5.136;2023-04-30T02:27:02;17.73;;;10.13;;
64199;SDS011;50516;52.272;5.136;2023-04-30T02:29:28;14.60;;;9.45;;
64199;SDS011;50516;52.272;5.136;2023-04-30T02:31:54;16.75;;;9.30;;
64199;SDS011;50516;52.272;5.136;2023-04-30T02:34:22;17.98;;;9.25;;
64199;SDS011;50516;52.272;5.136;2023-04-30T02:36:47;13.65;;;8.95;;
64199;SDS011;50516;52.272;5.136;2023-04-30T02:39:13;14.32;;;9.20;;
64199;SDS011;50516;52.272;5.136;2023-04-30T02:41:38;16.27;;;9.48;;
64199;SDS011;50516;52.272;5.136;2023-04-30T02:44:03;17.10;;;9.93;;
64199;SDS011;50516;52.272;5.136;2023-04-30T02:46:28;14.73;;;9.07;;
64199;SDS011;50516;52.272;5.136;2023-04-30T02:48:54;14.48;;;8.50;;
64199;SDS011;50516;52.272;5.136;2023-04-30T02:51:19;14.20;;;8.85;;
64199;SDS011;50516;52.272;5.136;2023-04-30T02:53:45;16.10;;;9.60;;
64199;SDS011;50516;52.272;5.136;2023-04-30T02:56:10;15.02;;;8.98;;
64199;SDS011;50516;52.272;5.136;2023-04-30T02:58:35;14.95;;;8.90;;
64199;SDS011;50516;52.272;5.136;2023-04-30T03:01:01;15.05;;;9.40;;
64199;SDS011;50516;52.272;5.136;2023-04-30T03:03:26;15.93;;;8.90;;
64199;SDS011;50516;52.272;5.136;2023-04-30T03:05:51;12.13;;;8.90;;
64199;SDS011;50516;52.272;5.136;2023-04-30T03:08:17;17.58;;;10.13;;
64199;SDS011;50516;52.272;5.136;2023-04-30T03:10:42;20.73;;;9.10;;
64199;SDS011;50516;52.272;5.136;2023-04-30T03:13:07;15.70;;;9.27;;
64199;SDS011;50516;52.272;5.136;2023-04-30T03:15:33;15.25;;;9.90;;
64199;SDS011;50516;52.272;5.136;2023-04-30T03:17:58;15.48;;;9.00;;
64199;SDS011;50516;52.272;5.136;2023-04-30T03:20:23;18.05;;;9.40;;
64199;SDS011;50516;52.272;5.136;2023-04-30T03:22:48;15.52;;;9.20;;
64199;SDS011;50516;52.272;5.136;2023-04-30T03:25:14;16.50;;;8.80;;
64199;SDS011;50516;52.272;5.136;2023-04-30T03:27:39;13.60;;;9.75;;
64199;SDS011;50516;52.272;5.136;2023-04-30T03:30:05;15.05;;;9.30;;
64199;SDS011;50516;52.272;5.136;2023-04-30T03:32:31;14.40;;;9.88;;
64199;SDS011;50516;52.272;5.136;2023-04-30T03:34:56;14.38;;;9.02;;
64199;SDS011;50516;52.272;5.136;2023-04-30T03:37:22;18.73;;;9.93;;
64199;SDS011;50516;52.272;5.136;2023-04-30T03:39:47;13.10;;;8.60;;
64199;SDS011;50516;52.272;5.136;2023-04-30T03:42:12;18.65;;;9.68;;
64199;SDS011;50516;52.272;5.136;2023-04-30T03:44:38;14.25;;;9.50;;
64199;SDS011;50516;52.272;5.136;2023-04-30T03:47:03;17.65;;;9.07;;
64199;SDS011;50516;52.272;5.136;2023-04-30T03:49:32;17.27;;;9.88;;
64199;SDS011;50516;52.272;5.136;2023-04-30T03:51:57;14.32;;;9.32;;
64199;SDS011;50516;52.272;5.136;2023-04-30T03:54:23;16.75;;;11.68;;
64199;SDS011;50516;52.272;5.136;2023-04-30T03:56:48;18.67;;;9.90;;
64199;SDS011;50516;52.272;5.136;2023-04-30T03:59:14;14.68;;;9.45;;
64199;SDS011;50516;52.272;5.136;2023-04-30T04:01:40;14.75;;;9.73;;
64199;SDS011;50516;52.272;5.136;2023-04-30T04:04:05;21.63;;;10.48;;
64199;SDS011;50516;52.272;5.136;2023-04-30T04:06:31;13.65;;;8.65;;
64199;SDS011;50516;52.272;5.136;2023-04-30T04:08:56;15.43;;;10.18;;
64199;SDS011;50516;52.272;5.136;2023-04-30T04:11:22;12.55;;;9.10;;
64199;SDS011;50516;52.272;5.136;2023-04-30T04:13:47;17.77;;;9.93;;
64199;SDS011;50516;52.272;5.136;2023-04-30T04:16:12;15.32;;;9.43;;
64199;SDS011;50516;52.272;5.136;2023-04-30T04:18:38;20.52;;;11.02;;
64199;SDS011;50516;52.272;5.136;2023-04-30T04:21:03;18.45;;;10.45;;
64199;SDS011;50516;52.272;5.136;2023-04-30T04:23:29;17.63;;;10.55;;
64199;SDS011;50516;52.272;5.136;2023-04-30T04:25:54;16.23;;;10.93;;
64199;SDS011;50516;52.272;5.136;2023-04-30T04:28:19;17.67;;;11.02;;
64199;SDS011;50516;52.272;5.136;2023-04-30T04:30:47;17.85;;;10.05;;
64199;SDS011;50516;52.272;5.136;2023-04-30T04:33:13;18.23;;;10.73;;
64199;SDS011;50516;52.272;5.136;2023-04-30T04:35:38;18.05;;;10.38;;
64199;SDS011;50516;52.272;5.136;2023-04-30T04:38:04;20.15;;;11.60;;
64199;SDS011;50516;52.272;5.136;2023-04-30T04:40:30;13.45;;;9.48;;
64199;SDS011;50516;52.272;5.136;2023-04-30T04:42:55;14.77;;;9.00;;
64199;SDS011;50516;52.272;5.136;2023-04-30T04:45:21;15.15;;;9.60;;
64199;SDS011;50516;52.272;5.136;2023-04-30T04:47:46;14.70;;;10.02;;
64199;SDS011;50516;52.272;5.136;2023-04-30T04:50:13;13.85;;;9.73;;
64199;SDS011;50516;52.272;5.136;2023-04-30T04:52:38;15.43;;;10.07;;
64199;SDS011;50516;52.272;5.136;2023-04-30T04:55:04;14.63;;;9.63;;
64199;SDS011;50516;52.272;5.136;2023-04-30T04:57:29;19.38;;;10.02;;
64199;SDS011;50516;52.272;5.136;2023-04-30T04:59:55;15.63;;;9.88;;
64199;SDS011;50516;52.272;5.136;2023-04-30T05:02:21;14.25;;;9.07;;
64199;SDS011;50516;52.272;5.136;2023-04-30T05:04:49;13.90;;;9.52;;
64199;SDS011;50516;52.272;5.136;2023-04-30T05:07:18;15.10;;;9.65;;
64199;SDS011;50516;52.272;5.136;2023-04-30T05:09:44;17.08;;;10.27;;
64199;SDS011;50516;52.272;5.136;2023-04-30T05:12:13;13.15;;;8.85;;
64199;SDS011;50516;52.272;5.136;2023-04-30T05:14:39;14.65;;;9.40;;
64199;SDS011;50516;52.272;5.136;2023-04-30T05:17:04;14.23;;;7.80;;
64199;SDS011;50516;52.272;5.136;2023-04-30T05:19:30;16.55;;;8.52;;
64199;SDS011;50516;52.272;5.136;2023-04-30T05:21:56;11.88;;;8.88;;
64199;SDS011;50516;52.272;5.136;2023-04-30T05:24:21;13.70;;;9.60;;
64199;SDS011;50516;52.272;5.136;2023-04-30T05:26:47;14.88;;;8.50;;
64199;SDS011;50516;52.272;5.136;2023-04-30T05:29:12;13.50;;;8.98;;
64199;SDS011;50516;52.272;5.136;2023-04-30T05:31:38;11.82;;;8.15;;
64199;SDS011;50516;52.272;5.136;2023-04-30T05:34:03;11.70;;;7.70;;
64199;SDS011;50516;52.272;5.136;2023-04-30T05:36:29;13.80;;;7.90;;
64199;SDS011;50516;52.272;5.136;2023-04-30T05:38:54;11.25;;;8.25;;
64199;SDS011;50516;52.272;5.136;2023-04-30T05:41:20;10.48;;;6.93;;
64199;SDS011;50516;52.272;5.136;2023-04-30T05:43:45;12.07;;;8.35;;
64199;SDS011;50516;52.272;5.136;2023-04-30T05:46:11;10.40;;;7.65;;
64199;SDS011;50516;52.272;5.136;2023-04-30T05:48:37;11.98;;;7.93;;
64199;SDS011;50516;52.272;5.136;2023-04-30T05:51:02;11.27;;;7.55;;
64199;SDS011;50516;52.272;5.136;2023-04-30T05:53:30;11.70;;;7.40;;
64199;SDS011;50516;52.272;5.136;2023-04-30T05:55:55;14.45;;;7.80;;
64199;SDS011;50516;52.272;5.136;2023-04-30T05:58:21;12.80;;;7.25;;
64199;SDS011;50516;52.272;5.136;2023-04-30T06:00:49;11.07;;;6.93;;
64199;SDS011;50516;52.272;5.136;2023-04-30T06:03:16;9.13;;;6.85;;
64199;SDS011;50516;52.272;5.136;2023-04-30T06:05:43;12.35;;;6.70;;
64199;SDS011;50516;52.272;5.136;2023-04-30T06:08:09;12.18;;;6.82;;
64199;SDS011;50516;52.272;5.136;2023-04-30T06:10:34;10.20;;;6.78;;
64199;SDS011;50516;52.272;5.136;2023-04-30T06:12:59;9.70;;;6.05;;
64199;SDS011;50516;52.272;5.136;2023-04-30T06:15:25;9.88;;;6.90;;
64199;SDS011;50516;52.272;5.136;2023-04-30T06:17:50;9.43;;;6.55;;
64199;SDS011;50516;52.272;5.136;2023-04-30T06:20:16;13.57;;;6.47;;
64199;SDS011;50516;52.272;5.136;2023-04-30T06:22:41;10.38;;;6.38;;
64199;SDS011;50516;52.272;5.136;2023-04-30T06:25:06;9.93;;;6.47;;
64199;SDS011;50516;52.272;5.136;2023-04-30T06:27:32;11.95;;;6.55;;
64199;SDS011;50516;52.272;5.136;2023-04-30T06:29:57;9.07;;;5.75;;
64199;SDS011;50516;52.272;5.136;2023-04-30T06:32:24;8.68;;;5.88;;
64199;SDS011;50516;52.272;5.136;2023-04-30T06:34:50;14.25;;;6.68;;
64199;SDS011;50516;52.272;5.136;2023-04-30T06:37:15;10.45;;;6.18;;
64199;SDS011;50516;52.272;5.136;2023-04-30T06:39:41;9.40;;;6.18;;
64199;SDS011;50516;52.272;5.136;2023-04-30T06:42:06;15.27;;;5.88;;
64199;SDS011;50516;52.272;5.136;2023-04-30T06:44:31;10.02;;;5.60;;
64199;SDS011;50516;52.272;5.136;2023-04-30T06:46:57;9.85;;;5.35;;
64199;SDS011;50516;52.272;5.136;2023-04-30T06:49:22;10.75;;;5.70;;
64199;SDS011;50516;52.272;5.136;2023-04-30T06:51:47;9.15;;;5.25;;
64199;SDS011;50516;52.272;5.136;2023-04-30T06:54:13;8.07;;;5.28;;
64199;SDS011;50516;52.272;5.136;2023-04-30T06:56:38;6.70;;;4.78;;
64199;SDS011;50516;52.272;5.136;2023-04-30T06:59:03;11.30;;;5.15;;
64199;SDS011;50516;52.272;5.136;2023-04-30T07:01:29;10.80;;;5.10;;
64199;SDS011;50516;52.272;5.136;2023-04-30T07:03:54;8.15;;;4.88;;
64199;SDS011;50516;52.272;5.136;2023-04-30T07:06:20;9.85;;;4.93;;
64199;SDS011;50516;52.272;5.136;2023-04-30T07:08:45;11.00;;;5.00;;
64199;SDS011;50516;52.272;5.136;2023-04-30T07:11:11;9.25;;;4.75;;
64199;SDS011;50516;52.272;5.136;2023-04-30T07:13:36;7.60;;;4.63;;
64199;SDS011;50516;52.272;5.136;2023-04-30T07:16:02;7.90;;;4.43;;
64199;SDS011;50516;52.272;5.136;2023-04-30T07:18:28;6.95;;;4.13;;
64199;SDS011;50516;52.272;5.136;2023-04-30T07:20:54;11.13;;;4.30;;
64199;SDS011;50516;52.272;5.136;2023-04-30T07:23:19;7.85;;;4.50;;
64199;SDS011;50516;52.272;5.136;2023-04-30T07:25:45;6.28;;;4.00;;
64199;SDS011;50516;52.272;5.136;2023-04-30T07:28:11;8.85;;;4.22;;
64199;SDS011;50516;52.272;5.136;2023-04-30T07:30:36;5.53;;;3.47;;
64199;SDS011;50516;52.272;5.136;2023-04-30T07:33:02;6.93;;;3.83;;
64199;SDS011;50516;52.272;5.136;2023-04-30T07:35:27;7.30;;;4.20;;
64199;SDS011;50516;52.272;5.136;2023-04-30T07:37:52;7.80;;;3.85;;
64199;SDS011;50516;52.272;5.136;2023-04-30T07:40:18;6.30;;;3.55;;
64199;SDS011;50516;52.272;5.136;2023-04-30T07:42:43;7.00;;;4.18;;
64199;SDS011;50516;52.272;5.136;2023-04-30T07:45:09;7.38;;;4.20;;
64199;SDS011;50516;52.272;5.136;2023-04-30T07:47:34;9.80;;;3.58;;
64199;SDS011;50516;52.272;5.136;2023-04-30T07:50:00;8.95;;;4.28;;
64199;SDS011;50516;52.272;5.136;2023-04-30T07:52:25;12.68;;;4.78;;
64199;SDS011;50516;52.272;5.136;2023-04-30T07:54:51;6.75;;;4.35;;
64199;SDS011;50516;52.272;5.136;2023-04-30T07:57:16;6.50;;;3.88;;
64199;SDS011;50516;52.272;5.136;2023-04-30T07:59:41;7.63;;;4.22;;
64199;SDS011;50516;52.272;5.136;2023-04-30T08:02:07;6.05;;;3.72;;
64199;SDS011;50516;52.272;5.136;2023-04-30T08:04:33;7.60;;;4.25;;
64199;SDS011;50516;52.272;5.136;2023-04-30T08:06:59;6.72;;;3.55;;
64199;SDS011;50516;52.272;5.136;2023-04-30T08:09:25;7.63;;;3.80;;
64199;SDS011;50516;52.272;5.136;2023-04-30T08:11:51;7.75;;;4.00;;
64199;SDS011;50516;52.272;5.136;2023-04-30T08:14:17;7.22;;;3.65;;
64199;SDS011;50516;52.272;5.136;2023-04-30T08:16:43;7.80;;;3.85;;
64199;SDS011;50516;52.272;5.136;2023-04-30T08:19:08;6.93;;;4.13;;
64199;SDS011;50516;52.272;5.136;2023-04-30T08:21:34;9.35;;;4.90;;
64199;SDS011;50516;52.272;5.136;2023-04-30T08:24:00;7.53;;;4.78;;
64199;SDS011;50516;52.272;5.136;2023-04-30T08:26:25;6.68;;;4.32;;
64199;SDS011;50516;52.272;5.136;2023-04-30T08:28:51;8.75;;;4.18;;
64199;SDS011;50516;52.272;5.136;2023-04-30T08:31:16;5.43;;;3.15;;
64199;SDS011;50516;52.272;5.136;2023-04-30T08:33:42;8.63;;;3.88;;
64199;SDS011;50516;52.272;5.136;2023-04-30T08:36:07;6.53;;;3.70;;
64199;SDS011;50516;52.272;5.136;2023-04-30T08:38:33;6.47;;;3.90;;
64199;SDS011;50516;52.272;5.136;2023-04-30T08:41:04;6.57;;;4.00;;
64199;SDS011;50516;52.272;5.136;2023-04-30T08:43:35;10.07;;;4.20;;
64199;SDS011;50516;52.272;5.136;2023-04-30T08:46:01;6.32;;;3.63;;
64199;SDS011;50516;52.272;5.136;2023-04-30T08:48:27;9.80;;;4.05;;
64199;SDS011;50516;52.272;5.136;2023-04-30T08:50:55;7.22;;;3.38;;
64199;SDS011;50516;52.272;5.136;2023-04-30T08:53:23;8.75;;;4.00;;
64199;SDS011;50516;52.272;5.136;2023-04-30T08:55:48;7.72;;;3.78;;
64199;SDS011;50516;52.272;5.136;2023-04-30T08:58:13;6.82;;;4.00;;
64199;SDS011;50516;52.272;5.136;2023-04-30T09:00:40;8.70;;;3.33;;
64199;SDS011;50516;52.272;5.136;2023-04-30T09:03:06;5.40;;;3.45;;
64199;SDS011;50516;52.272;5.136;2023-04-30T09:05:32;7.65;;;4.00;;
64199;SDS011;50516;52.272;5.136;2023-04-30T09:07:57;7.03;;;3.60;;
64199;SDS011;50516;52.272;5.136;2023-04-30T09:10:23;4.40;;;3.40;;
64199;SDS011;50516;52.272;5.136;2023-04-30T09:13:01;6.32;;;3.65;;
64199;SDS011;50516;52.272;5.136;2023-04-30T09:15:27;6.28;;;3.50;;
64199;SDS011;50516;52.272;5.136;2023-04-30T09:18:13;4.70;;;2.92;;
64199;SDS011;50516;52.272;5.136;2023-04-30T09:23:29;5.50;;;3.05;;
64199;SDS011;50516;52.272;5.136;2023-04-30T09:25:54;5.97;;;3.38;;
64199;SDS011;50516;52.272;5.136;2023-04-30T09:28:21;8.05;;;4.13;;
64199;SDS011;50516;52.272;5.136;2023-04-30T09:30:49;6.00;;;3.72;;
64199;SDS011;50516;52.272;5.136;2023-04-30T09:33:15;4.95;;;3.00;;
64199;SDS011;50516;52.272;5.136;2023-04-30T09:35:41;5.35;;;3.47;;
64199;SDS011;50516;52.272;5.136;2023-04-30T09:38:07;3.95;;;2.78;;
64199;SDS011;50516;52.272;5.136;2023-04-30T09:40:49;5.68;;;3.22;;
64199;SDS011;50516;52.272;5.136;2023-04-30T09:43:17;6.88;;;3.63;;
64199;SDS011;50516;52.272;5.136;2023-04-30T09:45:43;7.47;;;4.15;;
64199;SDS011;50516;52.272;5.136;2023-04-30T09:48:15;5.38;;;3.53;;
64199;SDS011;50516;52.272;5.136;2023-04-30T09:50:47;4.65;;;2.97;;
64199;SDS011;50516;52.272;5.136;2023-04-30T09:53:13;6.43;;;3.00;;
64199;SDS011;50516;52.272;5.136;2023-04-30T09:55:45;3.45;;;2.55;;
64199;SDS011;50516;52.272;5.136;2023-04-30T09:58:12;7.22;;;3.15;;
64199;SDS011;50516;52.272;5.136;2023-04-30T10:00:38;6.38;;;2.97;;
64199;SDS011;50516;52.272;5.136;2023-04-30T10:03:06;4.18;;;2.72;;
64199;SDS011;50516;52.272;5.136;2023-04-30T10:05:44;5.32;;;3.28;;
64199;SDS011;50516;52.272;5.136;2023-04-30T10:08:21;5.20;;;3.00;;
64199;SDS011;50516;52.272;5.136;2023-04-30T10:10:57;5.47;;;3.35;;
64199;SDS011;50516;52.272;5.136;2023-04-30T10:13:27;5.38;;;3.25;;
64199;SDS011;50516;52.272;5.136;2023-04-30T10:15:57;5.95;;;3.00;;
64199;SDS011;50516;52.272;5.136;2023-04-30T10:18:30;6.07;;;3.17;;
64199;SDS011;50516;52.272;5.136;2023-04-30T10:20:58;5.03;;;3.33;;
64199;SDS011;50516;52.272;5.136;2023-04-30T10:23:35;4.72;;;3.05;;
64199;SDS011;50516;52.272;5.136;2023-04-30T10:26:07;8.73;;;3.30;;
64199;SDS011;50516;52.272;5.136;2023-04-30T10:28:40;6.45;;;2.90;;
64199;SDS011;50516;52.272;5.136;2023-04-30T10:31:06;5.03;;;2.75;;
64199;SDS011;50516;52.272;5.136;2023-04-30T10:36:27;5.85;;;4.18;;
64199;SDS011;50516;52.272;5.136;2023-04-30T10:39:01;6.57;;;2.90;;
64199;SDS011;50516;52.272;5.136;2023-04-30T10:41:27;4.75;;;3.45;;
64199;SDS011;50516;52.272;5.136;2023-04-30T10:43:57;6.82;;;2.90;;
64199;SDS011;50516;52.272;5.136;2023-04-30T10:46:26;5.72;;;3.30;;
64199;SDS011;50516;52.272;5.136;2023-04-30T10:48:52;7.03;;;3.67;;
64199;SDS011;50516;52.272;5.136;2023-04-30T10:51:19;11.35;;;3.58;;
64199;SDS011;50516;52.272;5.136;2023-04-30T10:54:12;6.68;;;3.78;;
64199;SDS011;50516;52.272;5.136;2023-04-30T10:56:49;7.53;;;3.53;;
64199;SDS011;50516;52.272;5.136;2023-04-30T10:59:20;6.15;;;3.08;;
64199;SDS011;50516;52.272;5.136;2023-04-30T11:01:59;7.25;;;3.70;;
64199;SDS011;50516;52.272;5.136;2023-04-30T11:04:25;10.65;;;4.85;;
64199;SDS011;50516;52.272;5.136;2023-04-30T11:09:42;6.47;;;3.60;;
64199;SDS011;50516;52.272;5.136;2023-04-30T11:12:21;7.10;;;3.75;;
64199;SDS011;50516;52.272;5.136;2023-04-30T11:14:52;6.90;;;2.95;;
64199;SDS011;50516;52.272;5.136;2023-04-30T11:17:30;11.85;;;4.28;;
64199;SDS011;50516;52.272;5.136;2023-04-30T11:19:58;6.88;;;3.35;;
64199;SDS011;50516;52.272;5.136;2023-04-30T11:22:25;5.03;;;3.38;;
64199;SDS011;50516;52.272;5.136;2023-04-30T11:25:07;5.95;;;2.67;;
64199;SDS011;50516;52.272;5.136;2023-04-30T11:27:37;6.47;;;3.30;;
64199;SDS011;50516;52.272;5.136;2023-04-30T11:30:18;7.70;;;4.38;;
64199;SDS011;50516;52.272;5.136;2023-04-30T11:32:45;4.68;;;3.58;;
64199;SDS011;50516;52.272;5.136;2023-04-30T11:35:12;6.78;;;3.80;;
64199;SDS011;50516;52.272;5.136;2023-04-30T11:37:41;5.72;;;3.75;;
64199;SDS011;50516;52.272;5.136;2023-04-30T11:40:09;4.25;;;3.05;;
64199;SDS011;50516;52.272;5.136;2023-04-30T11:42:54;7.38;;;3.10;;
64199;SDS011;50516;52.272;5.136;2023-04-30T11:45:25;5.50;;;2.88;;
64199;SDS011;50516;52.272;5.136;2023-04-30T11:47:52;5.28;;;2.85;;
64199;SDS011;50516;52.272;5.136;2023-04-30T11:50:19;6.75;;;3.42;;
64199;SDS011;50516;52.272;5.136;2023-04-30T11:52:53;7.15;;;2.85;;
64199;SDS011;50516;52.272;5.136;2023-04-30T11:55:20;5.65;;;3.15;;
64199;SDS011;50516;52.272;5.136;2023-04-30T11:57:49;8.38;;;3.67;;
64199;SDS011;50516;52.272;5.136;2023-04-30T12:00:19;6.38;;;3.42;;
64199;SDS011;50516;52.272;5.136;2023-04-30T12:02:49;4.70;;;3.40;;
64199;SDS011;50516;52.272;5.136;2023-04-30T12:05:18;5.25;;;3.35;;
64199;SDS011;50516;52.272;5.136;2023-04-30T12:07:55;4.50;;;2.88;;
64199;SDS011;50516;52.272;5.136;2023-04-30T12:10:24;7.78;;;3.08;;
64199;SDS011;50516;52.272;5.136;2023-04-30T12:12:50;6.38;;;3.20;;
64199;SDS011;50516;52.272;5.136;2023-04-30T12:15:18;7.68;;;3.00;;
64199;SDS011;50516;52.272;5.136;2023-04-30T12:17:50;5.45;;;2.90;;
64199;SDS011;50516;52.272;5.136;2023-04-30T12:20:15;6.22;;;3.13;;
64199;SDS011;50516;52.272;5.136;2023-04-30T12:22:41;4.10;;;2.88;;
64199;SDS011;50516;52.272;5.136;2023-04-30T12:25:11;3.97;;;2.70;;
64199;SDS011;50516;52.272;5.136;2023-04-30T12:27:40;7.95;;;3.28;;
64199;SDS011;50516;52.272;5.136;2023-04-30T12:30:07;5.70;;;3.00;;
64199;SDS011;50516;52.272;5.136;2023-04-30T12:32:37;5.30;;;2.85;;
64199;SDS011;50516;52.272;5.136;2023-04-30T12:35:03;3.83;;;2.53;;
64199;SDS011;50516;52.272;5.136;2023-04-30T12:37:29;5.75;;;2.63;;
64199;SDS011;50516;52.272;5.136;2023-04-30T12:39:55;6.47;;;3.15;;
64199;SDS011;50516;52.272;5.136;2023-04-30T12:42:20;5.18;;;3.50;;
64199;SDS011;50516;52.272;5.136;2023-04-30T12:44:46;7.85;;;3.80;;
64199;SDS011;50516;52.272;5.136;2023-04-30T12:47:11;5.82;;;2.75;;
64199;SDS011;50516;52.272;5.136;2023-04-30T12:49:38;4.22;;;2.95;;
64199;SDS011;50516;52.272;5.136;2023-04-30T12:52:04;4.88;;;3.28;;
64199;SDS011;50516;52.272;5.136;2023-04-30T12:54:33;4.07;;;3.10;;
64199;SDS011;50516;52.272;5.136;2023-04-30T12:57:03;6.82;;;2.75;;
64199;SDS011;50516;52.272;5.136;2023-04-30T12:59:31;5.78;;;2.75;;
64199;SDS011;50516;52.272;5.136;2023-04-30T13:02:04;7.00;;;3.08;;
64199;SDS011;50516;52.272;5.136;2023-04-30T13:04:32;4.68;;;2.95;;
64199;SDS011;50516;52.272;5.136;2023-04-30T13:06:57;11.40;;;3.88;;
64199;SDS011;50516;52.272;5.136;2023-04-30T13:09:23;6.72;;;2.65;;
64199;SDS011;50516;52.272;5.136;2023-04-30T13:11:48;8.27;;;3.13;;
64199;SDS011;50516;52.272;5.136;2023-04-30T13:14:15;9.02;;;3.30;;
64199;SDS011;50516;52.272;5.136;2023-04-30T13:16:41;10.60;;;3.67;;
64199;SDS011;50516;52.272;5.136;2023-04-30T13:19:07;4.50;;;2.53;;
64199;SDS011;50516;52.272;5.136;2023-04-30T13:21:33;4.20;;;2.33;;
64199;SDS011;50516;52.272;5.136;2023-04-30T13:23:58;5.40;;;2.80;;
64199;SDS011;50516;52.272;5.136;2023-04-30T13:26:24;7.95;;;2.92;;
64199;SDS011;50516;52.272;5.136;2023-04-30T13:28:50;5.63;;;2.47;;
64199;SDS011;50516;52.272;5.136;2023-04-30T13:31:15;5.93;;;2.67;;
64199;SDS011;50516;52.272;5.136;2023-04-30T13:33:41;5.68;;;2.40;;
64199;SDS011;50516;52.272;5.136;2023-04-30T13:36:06;4.97;;;2.50;;
64199;SDS011;50516;52.272;5.136;2023-04-30T13:38:32;6.28;;;2.50;;
64199;SDS011;50516;52.272;5.136;2023-04-30T13:40:57;5.13;;;2.55;;
64199;SDS011;50516;52.272;5.136;2023-04-30T13:43:22;6.10;;;2.70;;
64199;SDS011;50516;52.272;5.136;2023-04-30T13:45:48;4.75;;;2.30;;
64199;SDS011;50516;52.272;5.136;2023-04-30T13:48:15;4.97;;;2.47;;
64199;SDS011;50516;52.272;5.136;2023-04-30T13:50:40;6.05;;;2.28;;
64199;SDS011;50516;52.272;5.136;2023-04-30T13:53:06;7.55;;;2.60;;
64199;SDS011;50516;52.272;5.136;2023-04-30T13:55:31;7.32;;;2.25;;
64199;SDS011;50516;52.272;5.136;2023-04-30T13:57:57;5.43;;;2.63;;
64199;SDS011;50516;52.272;5.136;2023-04-30T14:00:22;6.05;;;2.60;;
64199;SDS011;50516;52.272;5.136;2023-04-30T14:02:48;13.77;;;4.13;;
64199;SDS011;50516;52.272;5.136;2023-04-30T14:05:14;5.90;;;2.45;;
64199;SDS011;50516;52.272;5.136;2023-04-30T14:07:39;4.55;;;2.00;;
64199;SDS011;50516;52.272;5.136;2023-04-30T14:10:05;4.78;;;1.98;;
64199;SDS011;50516;52.272;5.136;2023-04-30T14:12:31;3.72;;;1.58;;
64199;SDS011;50516;52.272;5.136;2023-04-30T14:14:56;3.40;;;2.17;;
64199;SDS011;50516;52.272;5.136;2023-04-30T14:17:22;3.70;;;2.15;;
64199;SDS011;50516;52.272;5.136;2023-04-30T14:19:48;4.25;;;2.15;;
64199;SDS011;50516;52.272;5.136;2023-04-30T14:22:14;4.20;;;2.05;;
64199;SDS011;50516;52.272;5.136;2023-04-30T14:24:40;3.92;;;2.00;;
64199;SDS011;50516;52.272;5.136;2023-04-30T14:27:05;2.88;;;1.88;;
64199;SDS011;50516;52.272;5.136;2023-04-30T14:29:31;6.40;;;2.25;;
64199;SDS011;50516;52.272;5.136;2023-04-30T14:31:56;7.32;;;2.03;;
64199;SDS011;50516;52.272;5.136;2023-04-30T14:34:22;2.70;;;2.10;;
64199;SDS011;50516;52.272;5.136;2023-04-30T14:36:48;4.50;;;1.95;;
64199;SDS011;50516;52.272;5.136;2023-04-30T14:39:13;2.83;;;2.38;;
64199;SDS011;50516;52.272;5.136;2023-04-30T14:41:39;2.70;;;1.80;;
64199;SDS011;50516;52.272;5.136;2023-04-30T14:44:04;3.72;;;1.77;;
64199;SDS011;50516;52.272;5.136;2023-04-30T14:46:29;3.58;;;2.20;;
64199;SDS011;50516;52.272;5.136;2023-04-30T14:48:57;4.32;;;2.22;;
64199;SDS011;50516;52.272;5.136;2023-04-30T14:51:22;3.75;;;1.67;;
64199;SDS011;50516;52.272;5.136;2023-04-30T14:53:48;4.43;;;2.05;;
64199;SDS011;50516;52.272;5.136;2023-04-30T14:56:13;3.72;;;1.85;;
64199;SDS011;50516;52.272;5.136;2023-04-30T14:58:39;2.92;;;1.77;;
64199;SDS011;50516;52.272;5.136;2023-04-30T15:01:05;3.15;;;1.80;;
64199;SDS011;50516;52.272;5.136;2023-04-30T15:03:30;3.80;;;1.98;;